Time;durP1;ratioP1;P1;durP2;ratioP2;P2;SDS_P1;SDS_P2;PMS_P1;PMS_P2;Temp;Humidity;BMP_temperature;BMP_pressure;BME280_temperature;BME280_humidity;BME280_pressure;Samples;Min_cycle;Max_cycle;Signal;HPM_P1;HPM_P2
2024/02/04 00:00:45;;;;;;;8.23;7.10;;;11.30;99.90;;;;;;5069386;28;20536;-36
2024/02/04 00:03:13;;;;;;;8.43;7.43;;;11.30;99.90;;;;;;5043415;28;20417;-32
2024/02/04 00:05:39;;;;;;;11.17;7.87;;;11.30;99.90;;;;;;5059107;28;20436;-38
2024/02/04 00:08:06;;;;;;;9.13;7.00;;;11.30;99.90;;;;;;5077499;28;20445;-34
2024/02/04 00:10:36;;;;;;;7.43;6.23;;;11.30;99.90;;;;;;5041891;28;20810;-34
2024/02/04 00:13:03;;;;;;;8.30;7.17;;;11.30;99.90;;;;;;5077532;28;20755;-37
2024/02/04 00:15:31;;;;;;;7.03;6.20;;;11.30;99.90;;;;;;5058477;28;20506;-30
2024/02/04 00:17:57;;;;;;;6.50;5.13;;;11.40;99.90;;;;;;5058668;28;20531;-35
2024/02/04 00:20:25;;;;;;;9.87;6.33;;;11.30;99.90;;;;;;5058773;28;20837;-33
2024/02/04 00:22:51;;;;;;;6.83;5.40;;;11.30;99.90;;;;;;5058955;28;20494;-35
2024/02/04 00:25:19;;;;;;;5.93;5.10;;;11.30;99.90;;;;;;5082838;28;20438;-32
2024/02/04 00:27:45;;;;;;;5.40;4.53;;;11.30;99.90;;;;;;5097527;28;20439;-36
2024/02/04 00:30:11;;;;;;;5.63;4.87;;;11.30;99.90;;;;;;5079123;28;20486;-32
2024/02/04 00:32:37;;;;;;;5.60;4.83;;;11.30;99.90;;;;;;5062131;28;20467;-32
2024/02/04 00:35:06;;;;;;;5.57;4.67;;;11.30;99.90;;;;;;5097708;28;20499;-35
2024/02/04 00:37:32;;;;;;;6.50;4.60;;;11.30;99.90;;;;;;5078762;28;20451;-38
2024/02/04 00:39:58;;;;;;;5.80;3.93;;;11.30;99.90;;;;;;5079016;28;20507;-32
2024/02/04 00:42:24;;;;;;;5.30;4.80;;;11.30;99.90;;;;;;5061838;28;20444;-34
2024/02/04 00:44:50;;;;;;;4.27;3.87;;;11.30;99.90;;;;;;5078846;28;20428;-34
2024/02/04 00:47:16;;;;;;;4.23;3.83;;;11.30;99.90;;;;;;5078934;28;21073;-35
2024/02/04 00:49:45;;;;;;;4.50;4.10;;;11.30;99.90;;;;;;5062133;28;20456;-35
2024/02/04 00:52:12;;;;;;;4.83;4.30;;;11.30;99.90;;;;;;5078334;28;20459;-37
2024/02/04 00:54:38;;;;;;;4.53;3.97;;;11.30;99.90;;;;;;5078883;28;21253;-39
2024/02/04 00:57:05;;;;;;;5.63;4.90;;;11.30;99.90;;;;;;5080790;28;20428;-33
2024/02/04 00:59:33;;;;;;;4.17;3.77;;;11.30;99.90;;;;;;5066913;28;20431;-38
2024/02/04 01:02:01;;;;;;;4.53;4.13;;;11.30;99.90;;;;;;5101278;28;21029;-34
2024/02/04 01:04:28;;;;;;;4.07;3.67;;;11.30;99.90;;;;;;5093567;28;20437;-33
2024/02/04 01:06:54;;;;;;;5.90;4.60;;;11.30;99.90;;;;;;5046483;28;20420;-36
2024/02/04 01:09:20;;;;;;;5.87;4.90;;;11.30;99.90;;;;;;5081466;28;20432;-33
2024/02/04 01:11:46;;;;;;;4.40;4.00;;;11.30;99.90;;;;;;5081521;28;20476;-34
2024/02/04 01:14:12;;;;;;;5.80;5.20;;;11.30;99.90;;;;;;5064656;28;20421;-34
2024/02/04 01:16:41;;;;;;;5.30;4.80;;;11.30;99.90;;;;;;5048205;28;20456;-38
2024/02/04 01:19:07;;;;;;;4.60;4.10;;;11.30;99.90;;;;;;5081204;28;20827;-30
2024/02/04 01:21:33;;;;;;;4.77;4.33;;;11.30;99.90;;;;;;5081330;28;20524;-34
2024/02/04 01:23:59;;;;;;;5.63;4.73;;;11.30;99.90;;;;;;5086873;28;20452;-35
2024/02/04 01:26:25;;;;;;;5.17;4.30;;;11.30;99.90;;;;;;5080467;28;20777;-37
2024/02/04 01:28:51;;;;;;;5.37;4.57;;;11.30;99.90;;;;;;5024681;28;20495;-33
2024/02/04 01:31:20;;;;;;;6.33;5.33;;;11.30;99.90;;;;;;5060111;28;20449;-37
2024/02/04 01:33:46;;;;;;;5.13;4.63;;;11.30;99.90;;;;;;5024650;28;20491;-38
2024/02/04 01:36:12;;;;;;;5.23;4.63;;;11.30;99.90;;;;;;5051221;28;21057;-32
2024/02/04 01:38:40;;;;;;;8.30;4.97;;;11.30;99.90;;;;;;5070003;28;20504;-29
2024/02/04 01:41:11;;;;;;;5.67;4.70;;;11.30;99.90;;;;;;5042257;28;20953;-36
2024/02/04 01:43:37;;;;;;;6.37;4.93;;;11.30;99.90;;;;;;5041420;28;20505;-37
2024/02/04 01:46:05;;;;;;;5.93;4.30;;;11.30;99.90;;;;;;5062638;28;20493;-34
2024/02/04 01:48:34;;;;;;;6.23;5.50;;;11.30;99.90;;;;;;5061543;28;20428;-39
2024/02/04 01:51:06;;;;;;;6.40;4.90;;;11.30;99.90;;;;;;5060763;28;20429;-36
2024/02/04 01:53:36;;;;;;;5.90;5.10;;;11.30;99.90;;;;;;5061618;28;20809;-36
2024/02/04 01:56:02;;;;;;;5.53;5.03;;;11.30;99.90;;;;;;5079525;28;20417;-38
2024/02/04 01:58:28;;;;;;;5.70;4.47;;;11.30;99.90;;;;;;5043675;28;20582;-33
2024/02/04 02:00:54;;;;;;;6.17;5.57;;;11.30;99.90;;;;;;5060963;28;20512;-35
2024/02/04 02:03:28;;;;;;;5.30;4.80;;;11.30;99.90;;;;;;5044218;28;20417;-36
2024/02/04 02:05:58;;;;;;;5.97;5.37;;;11.30;99.90;;;;;;5054666;28;21284;-33
2024/02/04 02:08:25;;;;;;;4.53;4.13;;;11.30;99.90;;;;;;5099056;28;20447;-37
2024/02/04 02:11:00;;;;;;;6.20;5.13;;;11.30;99.90;;;;;;5064257;28;21107;-39
2024/02/04 02:13:31;;;;;;;5.23;4.73;;;11.30;99.90;;;;;;5081249;28;20561;-39
2024/02/04 02:16:17;;;;;;;5.70;4.67;;;11.30;99.90;;;;;;5080889;28;21232;-35
2024/02/04 02:18:53;;;;;;;6.60;5.17;;;11.30;99.90;;;;;;5063393;28;20409;-33
2024/02/04 02:21:46;;;;;;;5.20;4.70;;;11.30;99.90;;;;;;5060805;28;20963;-34
2024/02/04 02:24:27;;;;;;;6.03;4.70;;;11.30;99.90;;;;;;5043561;28;21472;-32
2024/02/04 02:26:58;;;;;;;5.07;4.57;;;11.30;99.90;;;;;;5088725;28;20420;-29
2024/02/04 02:29:24;;;;;;;6.03;5.00;;;11.30;99.90;;;;;;5080422;28;20487;-35
2024/02/04 02:31:51;;;;;;;5.73;5.23;;;11.30;99.90;;;;;;5074490;28;20457;-35
2024/02/04 02:34:17;;;;;;;6.03;5.43;;;11.30;99.90;;;;;;5064634;28;20459;-33
2024/02/04 02:37:04;;;;;;;5.73;5.13;;;11.30;99.90;;;;;;5081322;28;21205;-36
2024/02/04 02:39:38;;;;;;;7.43;5.13;;;11.30;99.90;;;;;;5099346;28;20436;-37
2024/02/04 02:42:07;;;;;;;5.60;4.80;;;11.30;99.90;;;;;;5079956;28;20450;-38
2024/02/04 02:44:36;;;;;;;5.30;4.80;;;11.30;99.90;;;;;;5098812;28;20420;-34
2024/02/04 02:47:08;;;;;;;5.60;4.80;;;11.30;99.90;;;;;;5080147;28;20451;-30
2024/02/04 02:49:37;;;;;;;5.80;5.07;;;11.30;99.90;;;;;;5081178;28;21349;-32
2024/02/04 02:52:04;;;;;;;7.10;5.83;;;11.30;99.90;;;;;;5080228;28;20512;-35
2024/02/04 02:54:32;;;;;;;5.20;4.60;;;11.30;99.90;;;;;;5064237;28;20787;-34
2024/02/04 02:57:01;;;;;;;5.90;5.30;;;11.40;99.90;;;;;;5063136;28;20412;-35
2024/02/04 02:59:27;;;;;;;6.60;5.60;;;11.30;99.90;;;;;;5072307;28;20515;-34
2024/02/04 03:01:55;;;;;;;5.27;4.77;;;11.30;99.90;;;;;;5060033;28;20441;-29
2024/02/04 03:04:21;;;;;;;6.33;5.07;;;11.30;99.90;;;;;;5078112;28;20433;-37
2024/02/04 03:06:47;;;;;;;6.23;5.47;;;11.40;99.90;;;;;;5060590;28;20428;-34
2024/02/04 03:09:16;;;;;;;6.63;5.10;;;11.30;99.90;;;;;;5066928;28;20416;-31
2024/02/04 03:11:45;;;;;;;5.37;4.87;;;11.30;99.90;;;;;;5079638;28;20659;-36
2024/02/04 03:14:16;;;;;;;6.30;5.60;;;11.30;99.90;;;;;;5097639;28;20511;-36
2024/02/04 03:16:46;;;;;;;7.23;6.23;;;11.30;99.90;;;;;;5079786;28;20427;-35
2024/02/04 03:19:12;;;;;;;6.07;5.50;;;11.40;99.90;;;;;;5045969;28;20960;-35
2024/02/04 03:21:43;;;;;;;6.10;5.50;;;11.30;99.90;;;;;;5089999;28;20967;-28
2024/02/04 03:24:10;;;;;;;5.80;5.20;;;11.40;99.90;;;;;;5079399;28;20985;-36
2024/02/04 03:26:38;;;;;;;6.10;5.50;;;11.30;99.90;;;;;;5063522;28;21142;-32
2024/02/04 03:29:07;;;;;;;5.97;5.37;;;11.40;99.90;;;;;;5050042;28;20428;-31
2024/02/04 03:31:33;;;;;;;7.87;5.17;;;11.30;99.90;;;;;;5040514;28;20992;-35
2024/02/04 03:33:59;;;;;;;5.87;5.27;;;11.40;99.90;;;;;;5039578;28;20418;-33
2024/02/04 03:36:27;;;;;;;5.07;4.57;;;11.40;99.90;;;;;;5040063;28;20449;-40
2024/02/04 03:38:53;;;;;;;6.07;5.10;;;11.30;99.90;;;;;;5039649;28;20455;-39
2024/02/04 03:41:19;;;;;;;5.30;4.80;;;11.30;99.90;;;;;;5040042;28;21031;-32
2024/02/04 03:43:46;;;;;;;5.77;5.17;;;11.40;99.90;;;;;;5059945;28;20496;-32
2024/02/04 03:46:15;;;;;;;5.70;5.20;;;11.30;99.90;;;;;;5060201;28;20839;-38
2024/02/04 03:48:41;;;;;;;6.30;5.70;;;11.30;99.90;;;;;;5059480;28;20421;-36
2024/02/04 03:51:18;;;;;;;6.70;6.00;;;11.40;99.90;;;;;;5059664;28;20436;-36
2024/02/04 03:53:48;;;;;;;6.90;5.83;;;11.40;99.90;;;;;;5059611;28;20425;-34
2024/02/04 03:56:16;;;;;;;6.17;5.57;;;11.40;99.90;;;;;;5048953;28;21216;-37
2024/02/04 03:58:42;;;;;;;6.70;5.70;;;11.40;99.90;;;;;;5062598;28;20420;-31
2024/02/04 04:01:11;;;;;;;7.40;6.50;;;11.40;99.90;;;;;;5098143;28;20427;-37
2024/02/04 04:03:44;;;;;;;7.17;5.97;;;11.40;99.90;;;;;;4343252;22;21573;-34
2024/02/04 04:06:11;;;;;;;6.00;5.40;;;11.40;99.90;;;;;;5071220;28;20780;-34
2024/02/04 04:08:37;;;;;;;7.27;6.50;;;11.40;99.90;;;;;;5099335;28;20852;-38
2024/02/04 04:11:08;;;;;;;5.90;4.97;;;11.40;99.90;;;;;;5111870;28;20435;-31
2024/02/04 04:13:35;;;;;;;7.33;6.63;;;11.40;99.90;;;;;;5102926;28;20435;-32
2024/02/04 04:16:02;;;;;;;8.03;6.63;;;11.40;99.90;;;;;;5085461;22;20552;-27
2024/02/04 04:18:30;;;;;;;6.33;5.70;;;11.40;99.90;;;;;;5074928;28;20464;-28
2024/02/04 04:20:57;;;;;;;7.83;6.43;;;11.40;99.90;;;;;;5077317;28;20441;-28
2024/02/04 04:23:24;;;;;;;8.47;6.60;;;11.40;99.90;;;;;;5078014;28;20425;-27
2024/02/04 04:25:54;;;;;;;7.87;6.73;;;11.40;99.90;;;;;;5076899;28;20523;-27
2024/02/04 04:28:20;;;;;;;6.77;5.80;;;11.40;99.90;;;;;;5058213;28;20500;-28
2024/02/04 04:30:46;;;;;;;8.33;7.43;;;11.40;99.90;;;;;;5043736;28;20979;-28
2024/02/04 04:33:13;;;;;;;10.00;6.70;;;11.40;99.90;;;;;;5046490;28;20558;-27
2024/02/04 04:36:04;;;;;;;7.70;6.43;;;11.40;99.90;;;;;;5062550;28;20441;-27
2024/02/04 04:38:30;;;;;;;9.50;7.90;;;11.40;99.90;;;;;;5062181;28;20429;-27
2024/02/04 04:40:58;;;;;;;9.40;8.07;;;11.40;99.90;;;;;;5082287;28;20441;-28
2024/02/04 04:43:26;;;;;;;10.80;7.90;;;11.40;99.90;;;;;;5080603;28;20932;-28
2024/02/04 04:45:52;;;;;;;9.90;8.13;;;11.40;99.90;;;;;;5045246;28;20486;-28
2024/02/04 04:48:18;;;;;;;10.50;7.53;;;11.40;99.90;;;;;;5062390;28;20494;-28
2024/02/04 04:50:44;;;;;;;12.60;8.87;;;11.40;99.90;;;;;;5081423;28;20429;-28
2024/02/04 04:53:12;;;;;;;12.53;9.17;;;11.40;99.90;;;;;;5066143;28;20818;-27
2024/02/04 04:55:38;;;;;;;10.60;8.27;;;11.40;99.90;;;;;;5083470;28;20714;-27
2024/02/04 04:58:04;;;;;;;10.90;8.70;;;11.40;99.90;;;;;;5091104;28;20476;-27
2024/02/04 05:00:30;;;;;;;11.20;9.20;;;11.40;99.90;;;;;;5065970;28;20421;-27
2024/02/04 05:02:56;;;;;;;11.70;8.90;;;11.40;99.90;;;;;;5077883;28;20301;-28
2024/02/04 05:05:22;;;;;;;11.17;9.20;;;11.40;99.90;;;;;;5081075;28;20428;-27
2024/02/04 05:07:48;;;;;;;10.87;8.90;;;11.40;99.90;;;;;;5080276;28;20452;-28
2024/02/04 05:10:16;;;;;;;13.60;9.73;;;11.40;99.90;;;;;;5046506;28;20429;-27
2024/02/04 05:12:44;;;;;;;13.20;10.57;;;11.40;99.90;;;;;;5080623;28;20472;-27
2024/02/04 05:15:11;;;;;;;11.90;10.17;;;11.40;99.90;;;;;;5062657;28;20971;-27
2024/02/04 05:17:37;;;;;;;14.70;11.40;;;11.40;99.90;;;;;;5081035;28;20429;-26
2024/02/04 05:20:07;;;;;;;12.60;9.90;;;11.40;99.90;;;;;;5081327;28;20449;-27
2024/02/04 05:22:36;;;;;;;13.97;10.93;;;11.40;99.90;;;;;;5080441;28;20444;-26
2024/02/04 05:25:06;;;;;;;14.13;10.17;;;11.40;99.90;;;;;;5080752;28;20586;-27
2024/02/04 05:27:36;;;;;;;14.00;11.03;;;11.40;99.90;;;;;;5062673;28;20964;-27
2024/02/04 05:30:03;;;;;;;16.97;12.10;;;11.40;99.90;;;;;;5062993;28;20823;-27
2024/02/04 05:32:29;;;;;;;13.17;10.73;;;11.40;99.90;;;;;;5077822;28;20496;-28
2024/02/04 05:34:57;;;;;;;15.67;11.37;;;11.40;99.90;;;;;;5079802;28;20458;-26
2024/02/04 05:37:25;;;;;;;14.73;10.90;;;11.40;99.90;;;;;;5045463;28;20456;-27
2024/02/04 05:39:54;;;;;;;19.80;12.77;;;11.40;99.90;;;;;;5059727;28;20449;-27
2024/02/04 05:42:20;;;;;;;17.10;11.87;;;11.40;99.90;;;;;;5061923;28;20939;-27
2024/02/04 05:44:46;;;;;;;16.60;12.90;;;11.40;99.90;;;;;;5080375;28;20428;-27
2024/02/04 05:47:15;;;;;;;16.93;11.87;;;11.40;99.90;;;;;;5045960;28;21039;-27
2024/02/04 05:49:41;;;;;;;17.10;12.53;;;11.40;99.90;;;;;;5079827;28;20417;-27
2024/02/04 05:52:12;;;;;;;16.23;11.67;;;11.40;99.90;;;;;;5057034;28;20473;-28
2024/02/04 05:54:41;;;;;;;17.90;13.33;;;11.40;99.90;;;;;;5061228;28;20482;-27
2024/02/04 05:57:11;;;;;;;15.77;13.30;;;11.40;99.90;;;;;;5074949;28;20433;-27
2024/02/04 05:59:39;;;;;;;17.17;12.60;;;11.40;99.90;;;;;;5043016;28;20438;-27
2024/02/04 06:02:11;;;;;;;19.10;13.17;;;11.40;99.90;;;;;;5045284;28;20437;-27
2024/02/04 06:04:40;;;;;;;16.87;13.30;;;11.40;99.90;;;;;;5045842;28;20420;-26
2024/02/04 06:07:06;;;;;;;18.40;13.20;;;11.40;99.90;;;;;;5062280;28;20428;-26
2024/02/04 06:09:33;;;;;;;16.20;12.87;;;11.40;99.90;;;;;;5061714;28;20421;-27
2024/02/04 06:12:02;;;;;;;18.70;13.43;;;11.40;99.90;;;;;;5028627;28;20526;-27
2024/02/04 06:14:30;;;;;;;16.97;13.50;;;11.40;99.90;;;;;;5080014;28;20516;-26
2024/02/04 06:16:56;;;;;;;21.50;13.67;;;11.40;99.90;;;;;;5063159;28;20443;-28
2024/02/04 06:19:23;;;;;;;20.17;13.90;;;11.40;99.90;;;;;;5080920;28;20413;-28
2024/02/04 06:21:49;;;;;;;18.50;13.53;;;11.40;99.90;;;;;;5062426;28;20441;-28
2024/02/04 06:24:20;;;;;;;16.27;13.03;;;11.40;99.90;;;;;;5045590;28;20955;-28
2024/02/04 06:26:50;;;;;;;18.33;13.60;;;11.40;99.90;;;;;;5081280;28;20449;-28
2024/02/04 06:29:19;;;;;;;18.40;14.50;;;11.40;99.90;;;;;;5064427;28;20712;-28
2024/02/04 06:31:48;;;;;;;20.97;14.27;;;11.40;99.90;;;;;;5081088;28;20615;-27
2024/02/04 06:34:14;;;;;;;19.77;14.90;;;11.40;99.90;;;;;;5080991;28;20467;-27
2024/02/04 06:36:45;;;;;;;19.40;13.70;;;11.40;99.90;;;;;;5063055;28;20428;-28
2024/02/04 06:39:11;;;;;;;19.47;13.97;;;11.40;99.90;;;;;;5061251;28;20466;-28
2024/02/04 06:41:37;;;;;;;18.03;13.63;;;11.40;99.90;;;;;;5060173;28;20454;-27
2024/02/04 06:44:04;;;;;;;18.20;13.30;;;11.40;99.90;;;;;;5042666;28;20430;-28
2024/02/04 06:46:30;;;;;;;16.57;12.90;;;11.40;99.90;;;;;;5010149;28;20438;-26
2024/02/04 06:49:04;;;;;;;21.00;13.20;;;11.40;99.90;;;;;;5061406;28;20642;-28
2024/02/04 06:51:30;;;;;;;20.47;12.73;;;11.40;99.90;;;;;;5079773;28;20492;-27
2024/02/04 06:54:02;;;;;;;19.93;14.07;;;11.40;99.90;;;;;;5078958;28;20441;-27
2024/02/04 06:56:31;;;;;;;19.40;13.57;;;11.40;99.90;;;;;;5063184;28;20432;-26
2024/02/04 06:58:57;;;;;;;15.47;12.57;;;11.40;99.90;;;;;;5080768;28;21026;-28
2024/02/04 07:01:24;;;;;;;19.50;13.13;;;11.40;99.90;;;;;;5079877;28;20448;-26
2024/02/04 07:03:50;;;;;;;18.57;12.77;;;11.40;99.90;;;;;;5078657;28;20441;-27
2024/02/04 07:06:16;;;;;;;17.13;12.37;;;11.40;99.90;;;;;;5079299;28;20413;-27
2024/02/04 07:08:44;;;;;;;20.60;12.30;;;11.40;99.90;;;;;;5060033;28;20416;-26
2024/02/04 07:11:10;;;;;;;14.40;12.03;;;11.40;99.90;;;;;;5043743;28;20790;-27
2024/02/04 07:13:36;;;;;;;18.70;13.13;;;11.40;99.90;;;;;;5079451;28;20429;-26
2024/02/04 07:16:02;;;;;;;19.30;13.00;;;11.40;99.90;;;;;;5045038;28;20440;-27
2024/02/04 07:18:31;;;;;;;19.20;11.60;;;11.40;99.90;;;;;;5080336;28;20803;-27
2024/02/04 07:20:57;;;;;;;15.90;11.50;;;11.40;99.90;;;;;;5079629;28;20473;-26
2024/02/04 07:23:25;;;;;;;14.93;11.80;;;11.40;99.90;;;;;;5060662;28;20844;-26
2024/02/04 07:25:51;;;;;;;17.67;11.10;;;11.40;99.90;;;;;;5066061;28;20474;-27
2024/02/04 07:28:17;;;;;;;14.80;10.67;;;11.40;99.90;;;;;;5083138;28;20424;-28
2024/02/04 07:30:48;;;;;;;17.53;11.73;;;11.40;99.90;;;;;;5060573;28;20437;-28
2024/02/04 07:33:14;;;;;;;16.07;11.40;;;11.40;99.90;;;;;;5078993;28;20480;-28
2024/02/04 07:35:40;;;;;;;15.27;11.50;;;11.40;99.90;;;;;;5060940;28;20441;-28
2024/02/04 07:38:08;;;;;;;15.27;11.60;;;11.40;99.90;;;;;;5079412;28;20804;-28
2024/02/04 07:40:34;;;;;;;15.13;10.90;;;11.40;99.90;;;;;;5060682;28;20433;-27
2024/02/04 07:43:00;;;;;;;16.63;10.40;;;11.40;99.90;;;;;;5060760;28;20436;-28
2024/02/04 07:45:26;;;;;;;17.13;11.80;;;11.40;99.90;;;;;;5079807;28;20454;-29
2024/02/04 07:47:55;;;;;;;13.77;10.47;;;11.40;99.90;;;;;;5060952;28;20856;-28
2024/02/04 07:50:21;;;;;;;13.83;10.10;;;11.40;99.90;;;;;;5078328;28;20445;-28
2024/02/04 07:52:51;;;;;;;13.20;9.63;;;11.40;99.90;;;;;;5059921;28;20615;-28
2024/02/04 07:55:17;;;;;;;12.30;9.50;;;11.40;99.90;;;;;;5059705;28;20512;-27
2024/02/04 07:57:48;;;;;;;14.60;9.17;;;11.40;99.90;;;;;;5079724;28;20800;-27
2024/02/04 08:00:14;;;;;;;14.40;8.60;;;11.40;99.90;;;;;;5078897;28;20488;-27
2024/02/04 08:02:44;;;;;;;11.83;9.17;;;11.40;99.90;;;;;;5060507;28;20534;-28
2024/02/04 08:05:10;;;;;;;11.90;9.03;;;11.40;99.90;;;;;;5078818;28;20409;-27
2024/02/04 08:07:36;;;;;;;10.77;8.50;;;11.40;99.90;;;;;;5083304;28;20440;-28
2024/02/04 08:10:05;;;;;;;11.60;8.00;;;11.40;99.90;;;;;;5064658;28;21133;-28
2024/02/04 08:12:34;;;;;;;11.03;8.60;;;11.50;99.90;;;;;;5093351;28;20481;-28
2024/02/04 08:15:01;;;;;;;10.33;8.17;;;11.40;99.90;;;;;;5082801;28;20482;-28
2024/02/04 08:17:30;;;;;;;11.57;7.70;;;11.40;99.90;;;;;;5082956;28;20448;-27
2024/02/04 08:19:59;;;;;;;11.70;7.20;;;11.50;99.90;;;;;;5064951;28;20935;-28
2024/02/04 08:22:28;;;;;;;9.43;6.93;;;11.40;99.90;;;;;;5082696;28;20828;-29
2024/02/04 08:24:54;;;;;;;9.10;7.50;;;11.40;99.90;;;;;;5082397;28;20413;-27
2024/02/04 08:27:22;;;;;;;13.77;8.47;;;11.50;99.90;;;;;;5047385;28;20420;-27
2024/02/04 08:29:49;;;;;;;10.20;7.03;;;11.40;99.90;;;;;;5082306;28;21037;-28
2024/02/04 08:32:15;;;;;;;11.13;6.97;;;11.50;99.90;;;;;;5063475;28;20563;-27
2024/02/04 08:34:43;;;;;;;13.50;7.30;;;11.40;99.90;;;;;;5083063;28;20919;-28
2024/02/04 08:37:11;;;;;;;8.40;6.47;;;11.40;99.90;;;;;;5065629;28;20412;-27
2024/02/04 08:39:39;;;;;;;10.00;7.07;;;11.50;99.90;;;;;;5088353;28;20428;-28
2024/02/04 08:42:06;;;;;;;10.33;7.53;;;11.40;99.90;;;;;;5081388;28;20436;-27
2024/02/04 08:44:32;;;;;;;9.83;7.80;;;11.50;99.90;;;;;;5081361;28;21045;-26
2024/02/04 08:47:00;;;;;;;9.97;7.70;;;11.50;99.90;;;;;;5061475;28;20437;-26
2024/02/04 08:49:30;;;;;;;11.67;8.13;;;11.50;99.90;;;;;;5045086;28;20461;-27
2024/02/04 08:51:56;;;;;;;9.83;7.17;;;11.50;99.90;;;;;;5080673;28;20479;-26
2024/02/04 08:54:26;;;;;;;10.57;8.30;;;11.50;99.90;;;;;;5062302;28;20425;-27
2024/02/04 08:56:52;;;;;;;9.07;7.47;;;11.50;99.90;;;;;;5076825;28;20405;-27
2024/02/04 08:59:18;;;;;;;9.67;6.80;;;11.50;99.90;;;;;;5066297;28;20481;-27
2024/02/04 09:01:49;;;;;;;8.50;6.47;;;11.50;99.90;;;;;;5100076;28;20500;-26
2024/02/04 09:04:15;;;;;;;8.40;6.53;;;11.50;99.90;;;;;;5091571;28;20856;-27
2024/02/04 09:06:42;;;;;;;9.70;7.13;;;11.50;99.90;;;;;;5045959;28;20476;-27
2024/02/04 09:09:13;;;;;;;9.53;7.10;;;11.50;99.90;;;;;;5061839;28;20456;-26
2024/02/04 09:11:39;;;;;;;10.63;6.83;;;11.50;99.90;;;;;;5028640;28;21085;-27
2024/02/04 09:14:06;;;;;;;8.73;7.10;;;11.50;99.90;;;;;;5045404;28;20498;-27
2024/02/04 09:16:33;;;;;;;9.23;7.20;;;11.50;99.90;;;;;;5079103;28;20822;-27
2024/02/04 09:18:58;;;;;;;11.30;6.80;;;11.50;99.90;;;;;;5045090;28;20513;-27
2024/02/04 09:21:25;;;;;;;12.13;7.67;;;11.50;99.90;;;;;;5061023;28;20444;-27
2024/02/04 09:23:51;;;;;;;10.00;7.43;;;11.50;99.90;;;;;;5062042;28;20450;-27
2024/02/04 09:26:20;;;;;;;9.27;7.37;;;11.50;99.90;;;;;;5080451;28;20959;-27
2024/02/04 09:28:46;;;;;;;8.60;6.37;;;11.50;99.90;;;;;;5062324;28;20763;-26
2024/02/04 09:31:12;;;;;;;9.97;7.53;;;11.50;99.90;;;;;;5079808;28;20437;-27
2024/02/04 09:33:40;;;;;;;8.20;7.30;;;11.50;99.90;;;;;;5046046;28;20859;-26
2024/02/04 09:36:06;;;;;;;12.83;7.33;;;11.50;99.90;;;;;;5081564;28;20178;-26
2024/02/04 09:38:32;;;;;;;8.43;6.63;;;11.50;99.90;;;;;;5046217;28;20804;-26
2024/02/04 09:41:00;;;;;;;8.80;6.70;;;11.50;99.90;;;;;;5081070;28;20898;-26
2024/02/04 09:43:26;;;;;;;9.17;7.10;;;11.50;99.90;;;;;;5081694;28;20972;-27
2024/02/04 09:45:52;;;;;;;8.53;7.00;;;11.50;99.90;;;;;;5081163;28;20540;-26
2024/02/04 09:48:23;;;;;;;8.93;6.70;;;11.60;99.90;;;;;;5081257;28;20445;-27
2024/02/04 09:50:51;;;;;;;10.03;7.33;;;11.50;99.90;;;;;;5062380;28;20528;-26
2024/02/04 09:53:22;;;;;;;10.33;6.77;;;11.50;99.90;;;;;;5062143;28;20468;-26
2024/02/04 09:55:52;;;;;;;10.30;7.37;;;11.50;99.90;;;;;;5084815;28;20991;-27
2024/02/04 09:58:18;;;;;;;10.00;6.90;;;11.60;99.90;;;;;;5061345;28;20532;-27
2024/02/04 10:00:50;;;;;;;6.33;5.67;;;11.60;99.90;;;;;;5081268;28;20803;-27
2024/02/04 10:03:18;;;;;;;7.43;6.07;;;11.60;99.90;;;;;;5072216;23;20473;-26
2024/02/04 10:05:44;;;;;;;7.80;6.57;;;11.60;99.90;;;;;;5046804;28;20884;-27
2024/02/04 10:08:11;;;;;;;9.63;7.23;;;11.60;99.90;;;;;;5063556;28;20437;-27
2024/02/04 10:10:36;;;;;;;7.37;6.00;;;11.60;99.90;;;;;;5067704;28;20520;-27
2024/02/04 10:13:11;;;;;;;10.47;7.20;;;11.60;99.90;;;;;;5092283;28;21360;-27
2024/02/04 10:15:40;;;;;;;7.07;6.37;;;11.60;99.90;;;;;;5105997;28;20589;-26
2024/02/04 10:18:07;;;;;;;8.10;5.80;;;11.60;99.90;;;;;;5065322;28;20554;-28
2024/02/04 10:20:35;;;;;;;8.40;6.20;;;11.60;99.90;;;;;;5089986;28;20504;-27
2024/02/04 10:23:02;;;;;;;9.83;7.33;;;11.60;99.90;;;;;;5066865;28;20983;-27
2024/02/04 10:25:32;;;;;;;9.93;6.53;;;11.60;99.90;;;;;;5095139;28;20421;-28
2024/02/04 10:28:01;;;;;;;7.33;6.10;;;11.60;99.90;;;;;;5064376;28;20425;-27
2024/02/04 10:30:27;;;;;;;7.70;6.37;;;11.60;99.90;;;;;;5064230;28;20445;-28
2024/02/04 10:32:54;;;;;;;7.63;6.80;;;11.60;99.90;;;;;;5043099;28;20479;-28
2024/02/04 10:35:23;;;;;;;8.70;5.60;;;11.60;99.90;;;;;;5055311;28;20506;-27
2024/02/04 10:37:51;;;;;;;7.73;5.60;;;11.60;99.90;;;;;;5057591;28;20492;-28
2024/02/04 10:40:20;;;;;;;8.37;6.30;;;11.60;99.90;;;;;;5080110;28;20563;-27
2024/02/04 10:42:47;;;;;;;10.50;7.13;;;11.60;99.90;;;;;;5091522;28;20516;-27
2024/02/04 10:45:17;;;;;;;8.80;5.90;;;11.60;99.90;;;;;;5085647;28;20433;-27
2024/02/04 10:47:57;;;;;;;8.73;6.40;;;11.60;99.90;;;;;;5090756;28;20876;-27
2024/02/04 10:50:27;;;;;;;9.47;7.33;;;11.60;99.90;;;;;;5083809;28;20428;-27
2024/02/04 10:53:00;;;;;;;8.23;6.10;;;11.60;99.90;;;;;;5089965;28;21199;-27
2024/02/04 10:55:31;;;;;;;6.80;6.13;;;11.60;99.90;;;;;;5049372;28;20441;-26
2024/02/04 10:57:58;;;;;;;7.40;5.90;;;11.60;99.90;;;;;;5089714;28;20456;-26
2024/02/04 11:00:24;;;;;;;6.17;5.50;;;11.60;99.90;;;;;;5069579;28;20430;-26
2024/02/04 11:02:54;;;;;;;8.23;6.00;;;11.60;99.90;;;;;;5044961;28;21041;-26
2024/02/04 11:05:23;;;;;;;7.40;5.97;;;11.60;99.90;;;;;;5064191;28;20665;-27
2024/02/04 11:07:52;;;;;;;7.43;6.27;;;11.70;99.90;;;;;;5084426;28;20432;-26
2024/02/04 11:10:19;;;;;;;6.83;5.40;;;11.60;99.90;;;;;;5081281;28;20421;-27
2024/02/04 11:12:49;;;;;;;7.20;5.80;;;11.60;99.90;;;;;;5079110;28;20500;-27
2024/02/04 11:15:20;;;;;;;7.50;5.77;;;11.60;99.90;;;;;;5073960;28;20421;-28
2024/02/04 11:18:03;;;;;;;8.73;6.10;;;11.60;99.90;;;;;;5062358;28;21009;-27
2024/02/04 11:20:59;;;;;;;9.33;6.00;;;11.60;99.90;;;;;;5061173;28;20471;-28
2024/02/04 11:23:44;;;;;;;7.00;6.03;;;11.60;99.90;;;;;;5081606;28;20811;-27
2024/02/04 11:26:16;;;;;;;8.20;5.70;;;11.70;99.90;;;;;;5065101;28;20918;-26
2024/02/04 11:28:42;;;;;;;10.27;6.50;;;11.60;99.90;;;;;;5081053;28;21270;-27
2024/02/04 11:31:18;;;;;;;7.03;5.90;;;11.70;99.90;;;;;;5077662;28;20529;-27
2024/02/04 11:33:45;;;;;;;7.30;6.40;;;11.60;99.90;;;;;;5085998;28;20439;-27
2024/02/04 11:36:18;;;;;;;10.37;7.37;;;11.70;99.90;;;;;;5088329;28;20434;-27
2024/02/04 11:38:49;;;;;;;8.13;6.67;;;11.70;99.90;;;;;;5066636;28;20532;-29
2024/02/04 11:41:26;;;;;;;10.60;7.67;;;11.70;99.90;;;;;;5048378;28;20491;-35
2024/02/04 11:43:56;;;;;;;7.33;6.30;;;11.70;99.90;;;;;;5076675;28;20839;-27
2024/02/04 11:46:22;;;;;;;8.20;6.50;;;11.70;99.90;;;;;;5070406;28;20455;-26
2024/02/04 11:48:53;;;;;;;11.90;7.07;;;11.70;99.90;;;;;;5083711;28;20514;-28
2024/02/04 11:51:24;;;;;;;9.83;7.20;;;11.70;99.90;;;;;;5088322;28;20524;-27
2024/02/04 11:53:56;;;;;;;9.63;7.10;;;11.70;99.90;;;;;;5092090;28;20511;-26
2024/02/04 11:56:23;;;;;;;8.90;7.13;;;11.70;99.90;;;;;;5085410;28;20471;-28
2024/02/04 11:58:49;;;;;;;10.17;7.63;;;11.70;99.90;;;;;;5081640;28;20436;-28
2024/02/04 12:01:16;;;;;;;8.20;6.70;;;11.70;99.90;;;;;;5089598;28;20436;-27
2024/02/04 12:03:46;;;;;;;8.40;6.67;;;11.70;99.90;;;;;;5063012;28;20468;-28
2024/02/04 12:06:16;;;;;;;9.80;7.27;;;11.70;99.90;;;;;;5086914;28;20429;-28
2024/02/04 12:08:45;;;;;;;9.50;7.40;;;11.70;99.90;;;;;;5076727;28;20767;-29
2024/02/04 12:11:11;;;;;;;10.87;7.37;;;11.70;99.90;;;;;;5080046;28;21112;-28
2024/02/04 12:13:39;;;;;;;7.67;6.07;;;11.70;99.90;;;;;;5095464;28;20949;-29
2024/02/04 12:16:08;;;;;;;8.50;6.30;;;11.70;99.90;;;;;;5093992;28;21033;-29
2024/02/04 12:18:34;;;;;;;8.00;7.10;;;11.70;99.90;;;;;;5062988;28;20471;-30
2024/02/04 12:21:00;;;;;;;8.10;5.57;;;11.70;99.90;;;;;;5092533;28;20483;-26
2024/02/04 12:23:29;;;;;;;12.00;6.40;;;11.70;99.90;;;;;;5088997;28;20260;-27
2024/02/04 12:25:55;;;;;;;7.87;6.13;;;11.80;99.90;;;;;;5060452;28;21087;-27
2024/02/04 12:28:21;;;;;;;7.17;6.40;;;11.70;99.90;;;;;;5043062;28;20903;-26
2024/02/04 12:30:57;;;;;;;8.73;6.10;;;11.80;99.90;;;;;;5087344;28;20440;-27
2024/02/04 12:33:23;;;;;;;8.67;6.77;;;11.70;99.90;;;;;;5078025;28;20471;-28
2024/02/04 12:35:51;;;;;;;8.20;5.83;;;11.80;99.90;;;;;;5092285;28;20437;-27
2024/02/04 12:38:19;;;;;;;7.30;5.90;;;11.80;99.90;;;;;;5069975;28;20424;-27
2024/02/04 12:40:45;;;;;;;8.33;5.67;;;11.80;99.90;;;;;;5071970;28;20443;-26
2024/02/04 12:43:14;;;;;;;6.30;5.53;;;11.80;99.90;;;;;;5073839;28;20547;-27
2024/02/04 12:45:41;;;;;;;7.73;5.20;;;11.80;99.90;;;;;;5092402;28;20953;-26